Time;durP1;ratioP1;P1;durP2;ratioP2;P2;SDS_P1;SDS_P2;PMS_P1;PMS_P2;Temp;Humidity;BMP_temperature;BMP_pressure;BME280_temperature;BME280_humidity;BME280_pressure;Samples;Min_cycle;Max_cycle;Signal;HPM_P1;HPM_P2
2021/10/24 00:00:14;;;;;;;14.63;5.37;;;;;;;1.68;100.00;97296.44;5039648;28;20014;-72
2021/10/24 00:02:40;;;;;;;8.83;4.80;;;;;;;1.72;100.00;97297.97;5034525;28;20107;-72
2021/10/24 00:05:06;;;;;;;11.93;4.30;;;;;;;1.78;100.00;97301.09;5024183;28;20032;-73
2021/10/24 00:07:33;;;;;;;9.50;4.87;;;;;;;1.80;100.00;97301.84;5035376;28;20075;-72
2021/10/24 00:09:59;;;;;;;8.90;4.80;;;;;;;1.70;100.00;97308.41;5026060;28;20450;-72
2021/10/24 00:12:24;;;;;;;10.07;4.23;;;;;;;1.58;100.00;97302.13;5038690;28;20464;-72
2021/10/24 00:14:50;;;;;;;8.97;4.97;;;;;;;1.55;100.00;97291.91;5036829;28;20642;-72
2021/10/24 00:17:16;;;;;;;15.63;5.43;;;;;;;1.54;100.00;97299.72;5034016;28;20138;-72
2021/10/24 00:19:42;;;;;;;11.97;4.63;;;;;;;1.57;100.00;97300.41;5043469;28;20032;-72
2021/10/24 00:22:07;;;;;;;10.47;4.27;;;;;;;1.52;100.00;97292.06;5048414;28;20483;-72
2021/10/24 00:24:33;;;;;;;8.33;4.30;;;;;;;1.80;100.00;97303.59;5016625;28;20021;-72
2021/10/24 00:26:59;;;;;;;11.83;4.53;;;;;;;1.66;100.00;97299.13;5015150;28;20482;-72
2021/10/24 00:29:25;;;;;;;9.90;4.47;;;;;;;1.53;100.00;97301.50;5013610;28;20026;-71
2021/10/24 00:31:50;;;;;;;8.40;4.27;;;;;;;1.53;100.00;97298.06;5008352;28;20041;-72
2021/10/24 00:34:16;;;;;;;11.40;4.90;;;;;;;1.47;100.00;97294.03;5010067;28;20032;-73
2021/10/24 00:36:43;;;;;;;9.13;4.07;;;;;;;1.35;100.00;97300.66;5033903;28;20111;-72
2021/10/24 00:39:09;;;;;;;10.67;4.60;;;;;;;1.32;100.00;97295.63;5039167;28;20456;-72
2021/10/24 00:41:35;;;;;;;8.40;4.23;;;;;;;1.41;100.00;97294.34;5006895;28;20515;-72
2021/10/24 00:44:21;;;;;;;7.20;3.97;;;;;;;1.52;100.00;97296.41;5024731;28;20111;-72
2021/10/24 00:46:52;;;;;;;10.67;4.07;;;;;;;1.63;100.00;97299.28;5025588;28;20036;-72
2021/10/24 00:49:18;;;;;;;8.53;4.23;;;;;;;1.64;100.00;97301.81;5028459;28;21501;-73
2021/10/24 00:51:44;;;;;;;9.13;4.10;;;;;;;1.69;100.00;97287.75;5034119;28;20459;-72
2021/10/24 00:54:14;;;;;;;10.20;3.80;;;;;;;1.75;100.00;97284.84;5008653;28;20468;-72
2021/10/24 00:56:44;;;;;;;9.47;4.00;;;;;;;1.77;100.00;97286.44;5027152;28;20452;-72
2021/10/24 00:59:13;;;;;;;10.93;4.53;;;;;;;1.77;100.00;97283.00;5058565;28;20521;-72
2021/10/24 01:01:39;;;;;;;10.07;4.47;;;;;;;1.83;100.00;97277.50;5013520;28;20545;-72
2021/10/24 01:04:07;;;;;;;10.83;4.20;;;;;;;1.76;100.00;97276.16;5028908;28;20810;-72
2021/10/24 01:06:35;;;;;;;8.00;3.60;;;;;;;1.76;100.00;97265.78;5035583;28;20448;-72
2021/10/24 01:09:06;;;;;;;7.27;3.60;;;;;;;1.76;100.00;97268.38;5023497;28;20459;-72
2021/10/24 01:11:32;;;;;;;8.50;3.50;;;;;;;1.75;100.00;97264.94;5026540;28;21047;-72
2021/10/24 01:13:58;;;;;;;9.00;3.37;;;;;;;1.73;100.00;97266.78;5028511;28;20482;-72
2021/10/24 01:16:24;;;;;;;8.20;3.70;;;;;;;1.80;100.00;97264.69;5025496;28;20495;-72
2021/10/24 01:18:51;;;;;;;8.83;3.53;;;;;;;1.83;100.00;97259.34;5014699;28;20471;-72
2021/10/24 01:21:18;;;;;;;10.30;3.93;;;;;;;1.82;100.00;97257.69;5030261;28;20480;-72
2021/10/24 01:23:44;;;;;;;7.27;3.40;;;;;;;1.84;100.00;97254.06;5036074;28;20470;-72
2021/10/24 01:26:10;;;;;;;9.60;3.73;;;;;;;1.78;100.00;97253.59;5029716;28;21018;-72
2021/10/24 01:28:35;;;;;;;9.60;3.50;;;;;;;1.77;100.00;97254.47;5015963;28;20049;-72
2021/10/24 01:31:02;;;;;;;8.80;3.57;;;;;;;1.72;100.00;97257.31;5026064;28;20491;-72
2021/10/24 01:33:30;;;;;;;7.80;3.60;;;;;;;1.78;100.00;97244.03;5024516;28;20115;-72
2021/10/24 01:36:00;;;;;;;9.20;3.63;;;;;;;1.76;100.00;97245.03;5031144;28;20464;-72
2021/10/24 01:38:28;;;;;;;11.33;3.67;;;;;;;1.69;100.00;97241.09;5024058;28;20510;-72
2021/10/24 01:40:56;;;;;;;10.20;4.20;;;;;;;1.70;100.00;97240.16;5029228;28;20479;-72
2021/10/24 01:43:23;;;;;;;10.87;3.67;;;;;;;1.68;100.00;97229.03;5012778;28;20464;-72
2021/10/24 01:45:50;;;;;;;8.20;3.77;;;;;;;1.65;100.00;97230.88;5042647;28;20451;-72
2021/10/24 01:48:20;;;;;;;8.80;3.37;;;;;;;1.66;100.00;97223.94;5009298;28;20829;-72
2021/10/24 01:50:47;;;;;;;7.43;3.33;;;;;;;1.71;100.00;97221.09;5019965;28;20592;-72
2021/10/24 01:53:23;;;;;;;11.97;3.40;;;;;;;1.91;100.00;97210.50;5029420;28;20440;-72
2021/10/24 01:55:50;;;;;;;9.67;3.50;;;;;;;1.99;100.00;97213.53;4991543;28;20456;-72
2021/10/24 01:58:17;;;;;;;9.30;3.53;;;;;;;2.08;100.00;97205.25;5039585;28;20474;-72
2021/10/24 02:00:43;;;;;;;10.23;4.03;;;;;;;2.00;100.00;97201.38;5023866;28;20483;-72
2021/10/24 02:03:12;;;;;;;7.47;3.60;;;;;;;1.94;100.00;97197.34;5026621;28;20444;-73
2021/10/24 02:05:54;;;;;;;7.67;3.80;;;;;;;1.99;100.00;97192.78;5017939;28;20881;-72
2021/10/24 02:08:20;;;;;;;9.20;3.70;;;;;;;1.93;100.00;97198.28;5045462;28;20546;-72
2021/10/24 02:10:45;;;;;;;10.87;4.40;;;;;;;1.89;100.00;97186.41;5027624;28;20451;-72
2021/10/24 02:13:13;;;;;;;10.30;3.37;;;;;;;1.96;100.00;97187.75;5007186;28;20830;-72
2021/10/24 02:15:40;;;;;;;8.53;3.77;;;;;;;1.96;100.00;97182.56;5025668;28;20456;-72
2021/10/24 02:18:08;;;;;;;8.17;3.87;;;;;;;1.94;100.00;97183.56;5033743;28;20041;-72
2021/10/24 02:20:38;;;;;;;7.33;3.00;;;;;;;1.97;100.00;97186.00;5067473;28;20842;-72
2021/10/24 02:23:05;;;;;;;9.40;3.47;;;;;;;1.94;100.00;97183.56;5044148;28;20493;-72
2021/10/24 02:25:33;;;;;;;8.53;3.13;;;;;;;1.90;100.00;97172.50;5032763;28;20439;-72
2021/10/24 02:28:02;;;;;;;11.10;4.23;;;;;;;1.91;100.00;97174.19;5031462;28;20447;-72
2021/10/24 02:30:28;;;;;;;9.87;3.50;;;;;;;1.91;100.00;97173.34;5025347;28;20539;-72
2021/10/24 02:32:58;;;;;;;10.03;3.50;;;;;;;1.84;100.00;97178.03;5014265;28;20498;-72
2021/10/24 02:35:37;;;;;;;10.80;3.20;;;;;;;1.82;100.00;97172.94;5027237;28;20498;-72
2021/10/24 02:38:04;;;;;;;8.67;3.10;;;;;;;1.88;100.00;97175.19;5019953;28;20467;-72
2021/10/24 02:40:30;;;;;;;8.53;2.90;;;;;;;1.80;100.00;97171.34;5030840;28;20460;-72
2021/10/24 02:42:56;;;;;;;9.27;3.57;;;;;;;1.91;100.00;97175.94;5053387;28;20480;-72
2021/10/24 02:45:28;;;;;;;11.57;3.10;;;;;;;1.80;100.00;97171.34;5038297;28;20488;-72
2021/10/24 02:47:56;;;;;;;7.07;2.90;;;;;;;1.92;100.00;97169.84;5038724;28;20515;-72
2021/10/24 02:50:22;;;;;;;5.60;3.40;;;;;;;1.85;100.00;97169.34;5017523;28;20463;-72
2021/10/24 02:52:49;;;;;;;7.47;2.63;;;;;;;1.92;100.00;97169.84;5018062;28;20542;-72
2021/10/24 02:55:14;;;;;;;8.40;3.23;;;;;;;1.92;100.00;97170.69;5066854;28;21048;-72
2021/10/24 02:57:48;;;;;;;9.23;3.37;;;;;;;1.91;100.00;97161.22;5031544;28;20041;-72
2021/10/24 03:00:14;;;;;;;10.05;3.10;;;;;;;1.96;100.00;97167.00;5018217;28;21118;-72
2021/10/24 03:02:40;;;;;;;9.27;2.73;;;;;;;2.10;100.00;97163.66;5018832;28;20065;-72
2021/10/24 03:05:07;;;;;;;8.17;2.97;;;;;;;2.08;100.00;97163.75;5012100;28;20041;-72
2021/10/24 03:07:33;;;;;;;8.17;2.73;;;;;;;2.21;99.60;97158.69;5034475;28;20451;-72
2021/10/24 03:09:59;;;;;;;9.23;3.00;;;;;;;2.25;99.80;97156.78;5028596;28;20519;-72
2021/10/24 03:12:25;;;;;;;10.40;3.13;;;;;;;2.21;98.88;97144.88;5027392;28;20495;-72
2021/10/24 03:14:51;;;;;;;6.03;2.57;;;;;;;2.07;99.99;97151.66;5022563;28;20558;-72
2021/10/24 03:17:18;;;;;;;10.43;2.60;;;;;;;2.12;99.66;97147.06;5029597;28;20026;-72
2021/10/24 03:19:44;;;;;;;9.43;2.70;;;;;;;2.15;99.76;97146.06;5037124;28;20476;-72
2021/10/24 03:22:10;;;;;;;7.77;3.40;;;;;;;2.15;100.00;97145.22;5019890;28;20036;-72
2021/10/24 03:24:36;;;;;;;6.37;2.83;;;;;;;2.13;99.66;97148.75;5074265;28;20026;-72
2021/10/24 03:27:03;;;;;;;5.77;2.03;;;;;;;2.34;98.11;97151.91;5034422;28;20450;-72
2021/10/24 03:29:29;;;;;;;11.47;2.90;;;;;;;2.81;94.89;97152.72;5032724;28;20461;-72
2021/10/24 03:31:55;;;;;;;7.67;2.10;;;;;;;2.59;95.61;97153.97;5038220;28;20486;-72
2021/10/24 03:34:21;;;;;;;7.57;2.30;;;;;;;2.51;96.34;97147.50;5035962;28;20410;-72
2021/10/24 03:36:47;;;;;;;8.23;2.60;;;;;;;2.73;94.83;97152.34;5040720;28;20474;-72
2021/10/24 03:39:12;;;;;;;8.57;2.80;;;;;;;2.72;94.66;97151.50;5032302;28;20033;-72
2021/10/24 03:41:39;;;;;;;7.57;2.33;;;;;;;2.64;95.09;97152.84;5041033;28;20459;-72
2021/10/24 03:44:05;;;;;;;6.93;2.33;;;;;;;3.02;92.20;97148.88;5014545;28;20468;-72
2021/10/24 03:46:33;;;;;;;8.27;2.07;;;;;;;3.14;91.51;97157.69;5028517;28;20444;-72
2021/10/24 03:48:59;;;;;;;7.57;2.50;;;;;;;3.14;91.66;97156.88;5054046;28;20449;-72
2021/10/24 03:51:25;;;;;;;6.13;2.40;;;;;;;3.24;90.90;97160.59;5072871;28;20460;-72
2021/10/24 03:53:51;;;;;;;7.73;2.00;;;;;;;3.17;90.94;97151.50;5039424;28;20474;-72
2021/10/24 03:56:16;;;;;;;12.27;3.50;;;;;;;3.15;91.56;97154.16;5034650;28;20029;-72
2021/10/24 03:58:44;;;;;;;9.03;2.20;;;;;;;3.18;90.98;97160.94;5040476;28;20036;-72
2021/10/24 04:01:13;;;;;;;9.27;2.50;;;;;;;3.27;90.53;97160.41;5037030;28;20828;-72
2021/10/24 04:03:39;;;;;;;6.63;2.43;;;;;;;3.17;90.70;97157.53;5036348;28;20036;-72
2021/10/24 04:06:05;;;;;;;5.97;2.33;;;;;;;3.09;91.20;97154.56;5043110;28;20029;-71
2021/10/24 04:08:31;;;;;;;9.67;2.60;;;;;;;3.20;90.68;97161.72;5025866;28;20052;-72
2021/10/24 04:10:57;;;;;;;11.27;2.47;;;;;;;3.18;91.10;97158.34;5026701;28;20515;-72
2021/10/24 04:13:24;;;;;;;12.90;4.03;;;;;;;3.20;90.67;97164.31;5071230;28;20067;-72
2021/10/24 04:15:52;;;;;;;6.33;1.97;;;;;;;3.18;90.58;97163.56;5021977;28;20905;-72
2021/10/24 04:18:53;;;;;;;7.00;2.47;;;;;;;3.25;90.73;97151.84;5018022;28;20045;-72
2021/10/24 04:21:19;;;;;;;6.73;2.23;;;;;;;3.20;90.99;97156.50;5024944;28;20471;-72
2021/10/24 04:23:45;;;;;;;6.13;2.60;;;;;;;3.01;92.63;97152.38;5040856;28;20025;-71
2021/10/24 04:26:11;;;;;;;8.20;3.00;;;;;;;2.90;93.66;97154.78;5016293;28;20464;-72
2021/10/24 04:28:37;;;;;;;8.40;2.87;;;;;;;3.00;92.86;97155.91;5020693;28;20020;-72
2021/10/24 04:31:02;;;;;;;8.27;2.97;;;;;;;2.97;93.52;97155.25;5008930;28;20148;-71
2021/10/24 04:33:29;;;;;;;7.00;2.10;;;;;;;2.95;93.79;97154.50;5008538;28;20033;-73
2021/10/24 04:35:55;;;;;;;6.17;2.30;;;;;;;2.92;94.27;97150.34;5049007;28;20503;-72
2021/10/24 04:38:21;;;;;;;9.50;2.33;;;;;;;2.97;93.90;97156.09;5026722;28;21345;-72
2021/10/24 04:40:50;;;;;;;6.57;2.30;;;;;;;3.10;92.96;97150.19;5007559;28;20105;-72
2021/10/24 04:43:17;;;;;;;9.13;2.60;;;;;;;2.99;93.87;97150.81;5058532;28;20443;-72
2021/10/24 04:45:43;;;;;;;9.50;2.80;;;;;;;2.93;94.25;97148.56;5032119;28;20029;-72
2021/10/24 04:48:10;;;;;;;7.87;2.90;;;;;;;3.13;92.79;97147.41;5030343;28;20448;-72
2021/10/24 04:50:41;;;;;;;8.47;2.60;;;;;;;3.10;93.03;97150.19;5032948;28;20037;-72
2021/10/24 04:53:09;;;;;;;10.90;3.30;;;;;;;3.10;93.29;97150.19;5032447;28;20559;-71
2021/10/24 04:55:37;;;;;;;6.57;2.27;;;;;;;3.13;93.42;97150.00;5032636;28;20021;-71
2021/10/24 04:58:03;;;;;;;7.17;1.93;;;;;;;3.33;91.98;97157.44;5030128;28;20459;-71
2021/10/24 05:00:29;;;;;;;8.60;2.77;;;;;;;3.22;93.06;97150.31;5074619;28;20025;-71
2021/10/24 05:02:56;;;;;;;8.47;2.97;;;;;;;3.33;92.00;97149.66;5023143;28;20549;-72
2021/10/24 05:05:24;;;;;;;6.07;3.23;;;;;;;3.16;93.02;97155.84;5015806;28;20391;-71
2021/10/24 05:07:50;;;;;;;11.70;3.20;;;;;;;3.24;92.36;97153.63;5036793;28;21067;-72
2021/10/24 05:10:16;;;;;;;10.40;2.77;;;;;;;3.38;91.78;97158.00;5029823;28;20148;-71
2021/10/24 05:12:43;;;;;;;6.73;2.70;;;;;;;3.33;91.94;97164.41;5006758;28;20029;-72
2021/10/24 05:15:10;;;;;;;8.90;2.97;;;;;;;3.29;92.02;97150.78;5031418;28;20513;-72
2021/10/24 05:17:36;;;;;;;5.87;2.80;;;;;;;3.28;92.65;97155.09;5032288;28;20040;-72
2021/10/24 05:20:04;;;;;;;7.00;2.73;;;;;;;3.23;93.11;97143.34;5025735;28;20466;-72
2021/10/24 05:22:30;;;;;;;7.50;3.20;;;;;;;3.13;93.74;97144.81;5028706;28;20530;-72
2021/10/24 05:24:56;;;;;;;10.40;3.33;;;;;;;3.10;94.48;97139.78;5024165;28;20021;-72
2021/10/24 05:27:22;;;;;;;8.23;3.43;;;;;;;3.02;95.75;97148.88;5033403;28;20486;-72
2021/10/24 05:29:48;;;;;;;10.37;3.57;;;;;;;2.98;97.04;97141.34;5031173;28;20675;-72
2021/10/24 05:32:14;;;;;;;8.23;3.23;;;;;;;2.91;96.76;97138.25;5008129;28;20048;-72
2021/10/24 05:34:42;;;;;;;11.27;4.00;;;;;;;3.02;97.11;97137.66;5025634;28;20033;-71
2021/10/24 05:37:12;;;;;;;9.83;3.70;;;;;;;3.02;96.81;97128.09;5009045;28;20025;-71
2021/10/24 05:39:38;;;;;;;6.87;3.37;;;;;;;3.06;95.89;97133.94;5008473;28;20025;-71
2021/10/24 05:42:30;;;;;;;8.43;3.60;;;;;;;2.84;96.63;97135.19;5025616;28;20480;-72
2021/10/24 05:44:56;;;;;;;9.43;3.50;;;;;;;2.75;97.17;97138.34;5051427;28;20461;-72
2021/10/24 05:47:22;;;;;;;9.40;3.27;;;;;;;2.78;96.71;97135.56;5028415;28;20508;-71
2021/10/24 05:49:49;;;;;;;7.97;3.50;;;;;;;2.75;97.72;97133.16;5018124;28;20398;-72
2021/10/24 05:52:22;;;;;;;6.13;2.47;;;;;;;2.66;98.03;97133.66;5013492;28;20430;-72
2021/10/24 05:54:49;;;;;;;8.30;3.37;;;;;;;2.64;97.96;97129.47;5012195;28;20051;-71
2021/10/24 05:57:19;;;;;;;8.80;3.60;;;;;;;2.51;99.29;97126.75;5028941;28;21072;-72
2021/10/24 06:00:12;;;;;;;8.03;3.60;;;;;;;2.53;99.43;97127.50;5028573;28;20476;-72
2021/10/24 06:03:05;;;;;;;10.17;4.27;;;;;;;2.50;99.54;97127.69;5029192;28;20450;-72
2021/10/24 06:06:09;;;;;;;12.50;5.10;;;;;;;2.39;100.00;97135.25;5002702;28;20073;-72
2021/10/24 06:08:36;;;;;;;9.20;3.47;;;;;;;2.41;100.00;97130.78;4989204;28;20073;-72
2021/10/24 06:11:28;;;;;;;8.40;3.60;;;;;;;2.41;100.00;97131.63;4999278;28;20055;-72
2021/10/24 06:13:51;;;;;;;9.50;4.00;;;;;;;2.48;100.00;97132.97;5003677;28;20478;-72
2021/10/24 06:16:17;;;;;;;12.50;3.87;;;;;;;2.54;99.88;97132.59;5026240;28;20460;-72
2021/10/24 06:18:43;;;;;;;8.13;3.40;;;;;;;2.53;100.00;97136.13;5024544;28;20055;-72
2021/10/24 06:21:09;;;;;;;9.20;3.90;;;;;;;2.53;100.00;97135.28;5023716;28;20026;-72
2021/10/24 06:23:35;;;;;;;7.03;3.73;;;;;;;2.58;99.61;97131.53;5026773;28;20734;-72
2021/10/24 06:26:02;;;;;;;12.43;4.20;;;;;;;2.58;100.00;97131.53;5029142;28;20472;-72
2021/10/24 06:28:27;;;;;;;14.13;9.07;;;;;;;2.68;99.65;97133.56;5053631;28;20617;-72
2021/10/24 06:30:53;;;;;;;12.10;5.50;;;;;;;2.73;99.20;97136.75;5035302;28;20467;-72
2021/10/24 06:33:38;;;;;;;13.13;7.83;;;;;;;2.83;99.15;97138.72;5031149;28;20080;-72
2021/10/24 06:36:22;;;;;;;28.30;12.57;;;;;;;3.12;98.18;97137.91;5029770;28;20495;-72
2021/10/24 06:39:16;;;;;;;26.73;13.43;;;;;;;3.43;96.41;97131.75;5033441;28;20541;-72
2021/10/24 06:41:41;;;;;;;12.83;6.07;;;;;;;3.84;94.80;97121.38;5032131;28;20033;-72
2021/10/24 06:44:19;;;;;;;9.23;4.20;;;;;;;3.93;92.80;97131.22;5014479;28;20526;-72
2021/10/24 06:47:04;;;;;;;10.53;4.30;;;;;;;4.36;91.55;97128.50;5038770;28;20107;-72
2021/10/24 06:49:48;;;;;;;11.47;5.10;;;;;;;4.67;88.89;97123.88;5036887;28;20044;-72
2021/10/24 06:52:32;;;;;;;11.93;5.57;;;;;;;4.86;87.75;97128.69;5032702;28;20048;-72
2021/10/24 06:55:10;;;;;;;9.87;4.23;;;;;;;5.32;85.20;97123.00;5026214;28;20037;-72
2021/10/24 06:58:02;;;;;;;11.93;6.63;;;;;;;5.33;85.21;97132.50;5019659;28;20053;-73
2021/10/24 07:01:03;;;;;;;11.10;4.65;;;;;;;5.73;83.23;97133.19;5021382;28;20053;-73
2021/10/24 07:03:49;;;;;;;10.57;4.57;;;;;;;6.07;81.17;97123.00;5014847;28;20080;-73
2021/10/24 07:06:24;;;;;;;11.73;4.83;;;;;;;5.65;83.25;97133.72;5023687;28;20096;-73
2021/10/24 07:09:09;;;;;;;7.17;3.63;;;;;;;5.49;83.94;97132.28;5026281;28;20048;-73
2021/10/24 07:11:35;;;;;;;7.00;3.73;;;;;;;6.04;82.87;97129.28;5008794;28;20194;-73
2021/10/24 07:14:01;;;;;;;8.87;3.83;;;;;;;6.03;82.16;97122.38;5023262;28;20097;-73
2021/10/24 07:16:26;;;;;;;11.97;3.97;;;;;;;6.36;80.86;97128.75;5011008;28;20085;-73
2021/10/24 07:18:54;;;;;;;9.17;3.80;;;;;;;6.67;79.04;97124.72;5030660;28;20551;-73
2021/10/24 07:21:20;;;;;;;10.33;4.70;;;;;;;6.38;80.49;97129.47;5010582;28;20060;-74
2021/10/24 07:23:46;;;;;;;8.87;3.10;;;;;;;7.32;76.20;97128.59;5026265;28;20112;-73
2021/10/24 07:26:19;;;;;;;;;;;;;;;7.47;76.09;97126.56;5016405;28;20037;-74
2021/10/24 07:28:45;;;;;;;8.30;4.53;;;;;;;7.88;75.31;97123.38;5024208;28;20484;-75
2021/10/24 07:31:11;;;;;;;12.27;4.33;;;;;;;7.70;74.68;97120.38;5011220;28;20643;-74
2021/10/24 07:33:38;;;;;;;13.17;4.43;;;;;;;8.09;72.57;97126.06;5023937;28;20079;-75
2021/10/24 07:36:18;;;;;;;7.03;3.63;;;;;;;8.60;70.45;97120.25;5012728;28;20100;-75
2021/10/24 07:38:44;;;;;;;8.03;3.77;;;;;;;8.50;69.93;97121.94;5027144;28;20037;-74
2021/10/24 07:41:10;;;;;;;8.10;3.80;;;;;;;9.14;68.66;97121.88;5025907;28;20461;-74
2021/10/24 07:43:39;;;;;;;10.90;3.53;;;;;;;8.25;69.95;97126.53;5010242;28;20025;-74
2021/10/24 07:46:06;;;;;;;6.20;3.20;;;;;;;8.14;70.58;97125.69;5017473;28;20025;-75
2021/10/24 07:48:33;;;;;;;8.17;3.10;;;;;;;8.51;69.23;97126.22;5023529;28;20499;-76
2021/10/24 07:51:03;;;;;;;5.93;3.00;;;;;;;8.85;67.11;97126.09;5010603;28;20029;-77
2021/10/24 07:53:30;;;;;;;10.60;3.33;;;;;;;8.79;67.99;97113.50;5026579;28;20060;-75
2021/10/24 07:56:02;;;;;;;12.20;3.53;;;;;;;8.91;67.72;97118.53;5010227;28;20419;-74
2021/10/24 07:58:51;;;;;;;9.97;4.20;;;;;;;9.49;66.10;97111.97;5017464;28;20029;-75
2021/10/24 08:01:17;;;;;;;6.73;3.23;;;;;;;9.27;66.41;97124.31;5013389;28;20116;-75
2021/10/24 08:03:44;;;;;;;8.23;3.63;;;;;;;8.44;68.23;97118.03;5026246;28;20022;-74
2021/10/24 08:06:10;;;;;;;7.90;3.30;;;;;;;8.94;67.91;97125.31;5009498;28;20099;-73
2021/10/24 08:08:37;;;;;;;9.33;3.70;;;;;;;8.59;68.02;97133.47;5017775;28;20030;-73
2021/10/24 08:11:04;;;;;;;7.07;3.40;;;;;;;9.77;64.56;97120.97;5025636;28;20041;-74
2021/10/24 08:13:32;;;;;;;6.33;2.80;;;;;;;9.93;64.39;97120.47;5026203;28;20051;-75
2021/10/24 08:15:58;;;;;;;7.67;3.50;;;;;;;9.55;64.72;97117.53;5066843;28;20513;-74
2021/10/24 08:18:23;;;;;;;7.20;3.00;;;;;;;10.03;62.72;97110.81;5009777;28;20108;-75
2021/10/24 08:21:01;;;;;;;6.33;3.00;;;;;;;10.91;60.57;97109.13;5027351;28;20406;-75
2021/10/24 08:23:31;;;;;;;6.57;3.20;;;;;;;11.24;59.02;97113.13;5026742;28;20033;-75
2021/10/24 08:25:57;;;;;;;9.53;3.47;;;;;;;11.85;56.20;97107.41;5020513;28;20125;-74
2021/10/24 08:28:25;;;;;;;6.03;3.30;;;;;;;11.29;58.08;97105.59;5040182;28;20067;-75
2021/10/24 08:30:54;;;;;;;6.80;3.37;;;;;;;11.01;59.16;97108.16;5036454;28;20041;-74
2021/10/24 08:33:35;;;;;;;7.03;3.03;;;;;;;11.52;56.38;97112.19;5025955;28;20130;-74
2021/10/24 08:36:01;;;;;;;7.90;3.30;;;;;;;10.98;58.53;97118.13;5026092;28;20100;-74
2021/10/24 08:38:28;;;;;;;5.30;2.87;;;;;;;10.59;58.73;97120.75;5027096;28;20513;-74
2021/10/24 08:40:54;;;;;;;8.20;2.70;;;;;;;10.14;61.00;97118.59;5025755;28;20063;-75
2021/10/24 08:43:28;;;;;;;6.07;3.30;;;;;;;10.20;60.30;97125.94;5024828;28;20033;-74
2021/10/24 08:45:54;;;;;;;;;;;;;;;9.79;61.73;97130.38;5040465;28;20033;-74
2021/10/24 08:48:20;;;;;;;8.37;3.20;;;;;;;10.62;59.94;97118.69;5039925;28;20387;-74
2021/10/24 08:50:46;;;;;;;8.33;3.20;;;;;;;10.03;61.72;97122.16;5025966;28;20033;-75
2021/10/24 08:53:13;;;;;;;7.87;3.20;;;;;;;9.99;63.25;97118.13;5025735;28;20036;-74
2021/10/24 08:55:41;;;;;;;8.57;3.27;;;;;;;9.35;63.80;97124.47;5027147;28;20029;-74
2021/10/24 08:58:07;;;;;;;5.43;3.27;;;;;;;9.97;63.13;97127.13;5035671;28;20090;-75
2021/10/24 09:00:33;;;;;;;6.53;3.30;;;;;;;9.79;63.98;97122.50;5028805;28;20032;-75
2021/10/24 09:03:00;;;;;;;8.07;3.27;;;;;;;10.27;62.28;97113.94;5023229;28;20033;-75
2021/10/24 09:05:36;;;;;;;9.27;3.80;;;;;;;10.27;62.43;97119.19;5025085;28;20041;-74
2021/10/24 09:08:04;;;;;;;8.90;3.93;;;;;;;10.36;62.69;97122.81;5021575;28;20722;-75
2021/10/24 09:10:36;;;;;;;6.77;3.50;;;;;;;10.09;63.22;97115.53;5022663;28;20045;-74
2021/10/24 09:13:04;;;;;;;6.67;3.10;;;;;;;10.64;61.83;97113.28;5007973;28;20391;-74
2021/10/24 09:16:00;;;;;;;5.93;3.90;;;;;;;10.32;61.45;97110.91;5024680;28;20029;-73
2021/10/24 09:18:45;;;;;;;6.73;3.13;;;;;;;11.01;59.63;97118.69;5035050;28;20741;-75
2021/10/24 09:21:17;;;;;;;6.87;3.83;;;;;;;10.50;61.60;97119.78;5008247;28;20029;-74
2021/10/24 09:23:59;;;;;;;5.77;3.20;;;;;;;10.01;62.21;97116.19;5045945;28;20037;-74
2021/10/24 09:26:27;;;;;;;8.63;3.30;;;;;;;10.81;60.48;97111.78;5040241;28;20030;-75
2021/10/24 09:29:02;;;;;;;7.27;3.03;;;;;;;10.78;59.80;97118.13;5040379;28;20083;-74
2021/10/24 09:31:32;;;;;;;6.83;2.90;;;;;;;10.76;60.12;97108.72;5027854;28;20022;-74
2021/10/24 09:34:19;;;;;;;8.30;3.07;;;;;;;11.36;58.87;97117.22;5026312;28;20029;-75
2021/10/24 09:36:57;;;;;;;6.53;3.00;;;;;;;11.04;59.48;97115.78;5026421;28;20035;-75
2021/10/24 09:39:43;;;;;;;6.40;3.03;;;;;;;11.18;58.83;97111.03;5027893;28;20057;-75
2021/10/24 09:42:19;;;;;;;13.27;3.37;;;;;;;11.90;57.11;97110.41;5025672;28;20041;-75
2021/10/24 09:45:13;;;;;;;9.33;3.70;;;;;;;11.85;57.73;97109.22;5044286;28;20064;-74
2021/10/24 09:47:45;;;;;;;10.17;2.93;;;;;;;12.22;56.64;97106.50;5027008;28;20040;-75
2021/10/24 09:50:32;;;;;;;6.50;2.80;;;;;;;12.22;56.73;97114.41;5031660;28;20034;-75
2021/10/24 09:53:29;;;;;;;4.47;2.60;;;;;;;12.18;55.76;97097.25;5004844;28;20715;-75
2021/10/24 09:55:56;;;;;;;7.43;2.70;;;;;;;12.19;55.63;97105.00;5012850;28;20060;-74
2021/10/24 09:58:26;;;;;;;5.80;2.77;;;;;;;12.18;56.12;97092.78;5034003;28;20115;-75
2021/10/24 10:00:52;;;;;;;6.27;2.87;;;;;;;12.41;55.75;97103.75;5032227;28;20029;-75
2021/10/24 10:03:19;;;;;;;7.30;2.63;;;;;;;12.19;55.60;97101.53;5028260;28;20534;-74
2021/10/24 10:05:45;;;;;;;7.40;2.60;;;;;;;11.78;56.24;97122.09;5012385;28;20034;-75
2021/10/24 10:08:11;;;;;;;4.83;2.73;;;;;;;12.14;55.73;97103.75;5010776;28;20656;-74
2021/10/24 10:10:43;;;;;;;4.77;2.50;;;;;;;12.48;55.23;97098.72;5045741;28;20514;-74
2021/10/24 10:13:14;;;;;;;4.87;2.20;;;;;;;12.92;53.86;97094.31;5032495;28;20086;-74
2021/10/24 10:15:47;;;;;;;7.80;2.80;;;;;;;12.97;53.60;97093.84;5031224;28;20029;-75
2021/10/24 10:18:14;;;;;;;5.38;2.80;;;;;;;12.45;54.84;97094.56;5067123;28;20048;-75
2021/10/24 10:20:50;;;;;;;5.07;2.07;;;;;;;12.13;53.15;97088.94;5039974;28;20033;-75
2021/10/24 10:23:36;;;;;;;5.20;2.53;;;;;;;12.41;52.56;97087.09;5008840;28;20495;-75
2021/10/24 10:26:41;;;;;;;5.83;2.07;;;;;;;12.64;52.64;97092.75;5014207;28;20048;-74
2021/10/24 10:29:12;;;;;;;6.17;2.43;;;;;;;12.70;53.35;97092.97;5033059;28;20034;-75
2021/10/24 10:31:41;;;;;;;5.80;3.00;;;;;;;12.31;53.09;97084.53;5011446;28;20041;-75
2021/10/24 10:34:09;;;;;;;5.70;2.33;;;;;;;12.47;53.08;97086.47;5050439;28;20656;-74
2021/10/24 10:36:44;;;;;;;5.50;2.33;;;;;;;12.63;52.21;97091.91;5029339;28;20037;-74
2021/10/24 10:39:35;;;;;;;4.93;2.50;;;;;;;12.86;51.37;97087.00;5028774;28;20120;-76
2021/10/24 10:42:26;;;;;;;6.20;2.47;;;;;;;13.48;50.33;97079.06;5033483;28;20064;-74
2021/10/24 10:45:13;;;;;;;5.53;2.20;;;;;;;13.18;49.21;97075.88;5026610;28;20053;-73
2021/10/24 10:47:48;;;;;;;5.30;2.03;;;;;;;13.35;48.81;97070.72;5034557;28;20029;-75
2021/10/24 10:50:30;;;;;;;9.70;2.40;;;;;;;13.72;50.33;97077.53;5046611;28;20060;-75
2021/10/24 10:52:56;;;;;;;6.30;2.70;;;;;;;13.97;49.20;97067.88;5023612;28;20419;-75
2021/10/24 10:55:25;;;;;;;4.00;1.90;;;;;;;14.70;47.34;97056.66;5030623;28;20029;-75
2021/10/24 10:57:54;;;;;;;4.47;2.30;;;;;;;13.97;47.71;97065.22;5031840;28;20037;-75
2021/10/24 11:00:38;;;;;;;5.43;2.10;;;;;;;14.02;48.45;97062.94;5046839;28;20548;-75
2021/10/24 11:03:04;;;;;;;6.10;3.40;;;;;;;15.09;47.25;97052.34;5026943;28;20052;-75
2021/10/24 11:05:34;;;;;;;6.37;2.50;;;;;;;14.44;46.98;97054.09;5029829;28;20099;-75
2021/10/24 11:07:59;;;;;;;4.83;2.50;;;;;;;15.21;45.88;97054.63;5029777;28;20040;-75
2021/10/24 11:10:46;;;;;;;4.77;1.93;;;;;;;15.33;44.33;97045.34;5041673;28;20053;-75
2021/10/24 11:13:42;;;;;;;4.93;2.17;;;;;;;15.54;44.73;97053.56;5013429;28;20028;-75
2021/10/24 11:16:29;;;;;;;4.47;2.03;;;;;;;15.18;44.91;97047.00;5024171;28;20269;-75
2021/10/24 11:18:55;;;;;;;5.57;2.10;;;;;;;15.02;44.66;97051.34;5010029;28;20030;-74
2021/10/24 11:21:26;;;;;;;5.80;2.33;;;;;;;15.44;44.44;97042.31;5031485;28;20028;-76
2021/10/24 11:23:56;;;;;;;8.88;3.67;;;;;;;15.66;43.15;97035.50;5035268;28;20033;-76
2021/10/24 11:26:22;;;;;;;6.80;2.40;;;;;;;15.83;42.83;97030.97;5020710;28;20129;-75
2021/10/24 11:28:48;;;;;;;3.53;1.90;;;;;;;16.66;42.01;97027.63;5032795;28;20021;-76
2021/10/24 11:31:21;;;;;;;3.75;1.90;;;;;;;14.58;45.46;97034.94;5032815;28;20029;-75
2021/10/24 11:33:51;;;;;;;5.05;2.20;;;;;;;15.83;43.35;97027.47;5027065;28;20033;-75
2021/10/24 11:36:26;;;;;;;5.18;2.40;;;;;;;15.28;43.92;97035.22;5030274;28;20040;-75
2021/10/24 11:39:00;;;;;;;4.15;2.30;;;;;;;14.68;44.66;97034.78;5025571;28;20052;-75
2021/10/24 11:41:26;;;;;;;4.35;2.10;;;;;;;14.67;44.70;97031.31;5034032;28;20041;-74
2021/10/24 11:44:07;;;;;;;4.93;2.50;;;;;;;14.50;44.72;97027.84;5030596;28;20502;-74
2021/10/24 11:46:33;;;;;;;5.00;2.05;;;;;;;14.23;45.67;97025.47;5032221;28;20044;-74
2021/10/24 11:49:03;;;;;;;3.87;2.40;;;;;;;14.73;45.20;97019.25;5029462;28;20021;-73
2021/10/24 11:51:30;;;;;;;5.27;2.73;;;;;;;15.01;44.76;97017.06;5039407;28;20036;-74